Terminal Aerodrome Forecast
Issued by NWS

Home | Current Version | Previous Version | Text Only | Print | Product List | Glossary On
Versions: 1 2 3 4 5 6 7 8 9 10 11 12 13 14 15 16 17 18 19 20 21 22 23 24 25 26 27 28
000
FTPA31 PHFO 301700
TAFOGG
TAF
PHOG 301739Z 3018/3118 05013G19KT P6SM VCSH FEW030 SCT050
     FM302000 06016G24KT P6SM FEW030 SCT050
     FM310600 06010KT P6SM VCSH SCT030 BKN050
     FM311200 15005KT P6SM VCSH SCT030 BKN050
      AMD LTD TO WX VIS AND WIND 3109/3116=

USA.gov is the U.S. government's official web portal to all federal, state and local government web resources and services.